TAF for FNLU provided by aerobaticsweb.org
Current time: Tuesday, 11 Aug, 2020, 04:29 UTC
(This may take a minute, please be patient)


The most recent TAF forecast from FNLU in our system was generated at
2020/08/11 00:18
The forecast is:
FNLU 2020/08/11 00:18
TAF TAF FNLU 102300Z 1100/1218 19005KT 9999 FEW020 PROB30
TEMPO 1104/1108 6000 BR BKN015
BECMG 1109/1111 VRB02KT
TEMPO 1113/1117 26010KT 9000 NSC



access provided by Dr. Guenther Eichhorn at aerobaticsweb.org